createdAt,value
2023-04-08T00:00:58.139Z,98899.69
2023-04-08T00:06:02.696Z,98899.45
2023-04-08T00:11:05.764Z,98903.17
2023-04-08T00:16:08.163Z,98906.17
2023-04-08T00:21:10.785Z,98910.60
2023-04-08T00:26:13.116Z,98920.52
2023-04-08T00:31:16.602Z,98918.39
2023-04-08T00:36:19.234Z,98926.30
2023-04-08T00:41:21.929Z,98924.52
2023-04-08T00:46:24.776Z,98931.85
2023-04-08T00:51:39.080Z,98942.73
2023-04-08T00:56:43.644Z,98949.80
2023-04-08T01:02:06.808Z,98950.66
2023-04-08T01:07:47.970Z,98958.08
2023-04-08T01:12:56.555Z,98954.42
2023-04-08T01:18:00.801Z,98955.99
2023-04-08T01:23:18.561Z,98955.85
2023-04-08T01:28:23.878Z,98956.38
2023-04-08T01:33:29.446Z,98955.80
2023-04-08T01:38:34.102Z,98961.31
2023-04-08T01:43:39.600Z,98960.90
2023-04-08T01:48:42.945Z,98965.85
2023-04-08T01:53:45.801Z,98962.02
2023-04-08T01:58:54.856Z,98966.95
2023-04-08T02:04:00.697Z,98967.23
2023-04-08T02:09:04.327Z,98967.21
2023-04-08T02:14:06.668Z,98973.09
2023-04-08T02:19:18.914Z,98971.36
2023-04-08T02:24:22.313Z,98980.11
2023-04-08T02:29:26.487Z,98979.91
2023-04-08T02:34:30.894Z,98982.88
2023-04-08T02:39:33.534Z,98979.96
2023-04-08T02:44:36.483Z,98981.73
2023-04-08T02:49:38.790Z,98986.04
2023-04-08T02:54:41.941Z,98987.19
2023-04-08T02:59:44.368Z,98987.52
2023-04-08T03:04:50.607Z,98993.17
2023-04-08T03:09:55.158Z,98997.08
2023-04-08T03:14:58.073Z,98999.11
2023-04-08T03:20:01.857Z,99000.84
2023-04-08T03:25:04.575Z,99002.86
2023-04-08T03:30:09.170Z,99005.39
2023-04-08T03:35:11.830Z,99002.60
2023-04-08T03:40:14.159Z,99008.88
2023-04-08T03:45:17.363Z,99013.19
2023-04-08T03:50:26.475Z,99017.84
2023-04-08T03:55:29.207Z,99027.30
2023-04-08T04:00:33.806Z,99031.34
2023-04-08T04:05:38.112Z,99036.29
2023-04-08T04:10:41.138Z,99038.29
2023-04-08T04:15:43.951Z,99048.80
2023-04-08T04:20:46.350Z,99052.73
2023-04-08T04:25:49.169Z,99060.98
2023-04-08T04:30:51.454Z,99068.84
2023-04-08T04:35:54.511Z,99071.36
2023-04-08T04:40:59.008Z,99078.40
2023-04-08T04:46:02.488Z,99081.41
2023-04-08T04:51:04.742Z,99081.33
2023-04-08T04:56:08.315Z,99088.00
2023-04-08T05:01:10.652Z,99087.96
2023-04-08T05:06:14.152Z,99095.76
2023-04-08T05:11:18.453Z,99097.26
2023-04-08T05:16:21.105Z,99099.38
2023-04-08T05:21:24.072Z,99107.02
2023-04-08T05:26:28.140Z,99107.62
2023-04-08T05:31:30.516Z,99117.33
2023-04-08T05:36:33.528Z,99127.02
2023-04-08T05:41:35.619Z,99123.81
2023-04-08T05:46:38.882Z,99130.98
2023-04-08T05:51:41.160Z,99134.17
2023-04-08T05:56:46.472Z,99142.63
2023-04-08T06:01:48.805Z,99145.89
2023-04-08T06:06:51.485Z,99157.69
2023-04-08T06:11:54.173Z,99159.86
2023-04-08T06:16:57.761Z,99165.45
2023-04-08T06:22:00.023Z,99166.13
2023-04-08T06:27:03.417Z,99169.88
2023-04-08T06:32:06.534Z,99177.89
2023-04-08T06:37:09.204Z,99176.61
2023-04-08T06:42:11.401Z,99178.03
2023-04-08T06:47:21.693Z,99190.34
2023-04-08T06:52:24.499Z,99193.42
2023-04-08T06:57:30.122Z,99192.85
2023-04-08T07:02:33.035Z,99193.72
2023-04-08T07:07:36.831Z,99193.29
2023-04-08T07:12:39.322Z,99200.53
2023-04-08T07:17:42.973Z,99207.30
2023-04-08T07:22:45.446Z,99212.11
2023-04-08T07:27:48.014Z,99208.95
2023-04-08T07:32:50.954Z,99216.08
2023-04-08T07:37:53.914Z,99221.00
2023-04-08T07:42:56.647Z,99223.67
2023-04-08T07:47:59.040Z,99227.18
2023-04-08T07:53:01.266Z,99238.40
2023-04-08T07:58:03.947Z,99238.63
2023-04-08T08:03:07.340Z,99241.84
2023-04-08T08:08:14.094Z,99241.17
2023-04-08T08:13:25.749Z,99243.55
2023-04-08T08:18:40.220Z,99248.64
2023-04-08T08:23:42.918Z,99246.64
2023-04-08T08:28:45.400Z,99242.24
2023-04-08T08:33:48.425Z,99239.91
2023-04-08T08:38:55.362Z,99243.54
2023-04-08T08:43:57.404Z,99245.80
2023-04-08T08:49:13.245Z,99253.45
2023-04-08T08:54:16.197Z,99253.09
2023-04-08T08:59:18.763Z,99258.77
2023-04-08T09:04:39.958Z,99259.23
2023-04-08T09:09:51.724Z,99259.52
2023-04-08T09:15:11.025Z,99270.86
2023-04-08T09:20:16.470Z,99277.56
2023-04-08T09:25:29.546Z,99281.63
2023-04-08T09:30:38.734Z,99284.34
2023-04-08T09:35:44.382Z,99288.20
2023-04-08T09:41:41.751Z,99286.87
2023-04-08T09:47:45.018Z,99288.42
2023-04-08T09:53:34.331Z,99287.16
2023-04-08T10:38:20.333Z,99291.08
2023-04-08T10:43:24.205Z,99290.85
2023-04-08T10:48:26.884Z,99293.18
2023-04-08T10:53:31.092Z,99283.87
2023-04-08T10:58:34.653Z,99286.29
2023-04-08T11:03:37.958Z,99286.63
2023-04-08T11:08:40.904Z,99283.02
2023-04-08T11:13:52.592Z,99280.51
2023-04-08T11:18:56.943Z,99288.23
2023-04-08T11:23:59.249Z,99292.73
2023-04-08T11:29:02.704Z,99287.90
2023-04-08T11:34:04.558Z,99287.31
2023-04-08T11:39:08.843Z,99285.66
2023-04-08T11:44:11.512Z,99283.09
2023-04-08T11:49:13.742Z,99282.79
2023-04-08T11:54:27.769Z,99278.81
2023-04-08T11:59:30.097Z,99283.45
2023-04-08T12:04:32.447Z,99285.32
2023-04-08T12:09:35.086Z,99290.59
2023-04-08T12:14:37.870Z,99291.08
2023-04-08T12:19:41.184Z,99294.97
2023-04-08T12:24:43.160Z,99292.02
2023-04-08T12:29:46.292Z,99295.86
2023-04-08T12:34:48.215Z,99296.52
2023-04-08T12:39:50.551Z,99297.73
2023-04-08T12:44:53.222Z,99303.31
2023-04-08T12:49:55.754Z,99301.38
2023-04-08T12:54:57.942Z,99304.95
2023-04-08T13:00:00.160Z,99304.73
2023-04-08T13:05:02.536Z,99308.67
2023-04-08T13:10:07.076Z,99309.50
2023-04-08T13:15:10.362Z,99308.77
2023-04-08T13:20:12.766Z,99309.30
2023-04-08T13:25:14.659Z,99308.88
2023-04-08T13:30:16.857Z,99310.63
2023-04-08T13:35:19.410Z,99308.25
2023-04-08T13:40:22.282Z,99307.91
2023-04-08T13:45:25.329Z,99306.96
2023-04-08T13:50:27.429Z,99308.05
2023-04-08T13:55:29.385Z,99308.99
2023-04-08T14:00:32.995Z,99309.27
2023-04-08T14:05:34.938Z,99311.41
2023-04-08T14:10:39.196Z,99311.14
2023-04-08T14:15:42.197Z,99309.10
2023-04-08T14:20:45.221Z,99309.33
2023-04-08T14:25:47.697Z,99306.10
2023-04-08T14:30:51.245Z,99304.98
2023-04-08T14:35:53.876Z,99308.05
2023-04-08T14:40:56.519Z,99312.06
2023-04-08T14:45:58.421Z,99314.63
2023-04-08T14:51:00.645Z,99315.50
2023-04-08T14:56:02.618Z,99313.00
2023-04-08T15:01:05.272Z,99318.73
2023-04-08T15:06:08.265Z,99319.49
2023-04-08T15:11:10.955Z,99318.19
2023-04-08T15:16:13.281Z,99323.77
2023-04-08T15:21:16.679Z,99323.96
2023-04-08T15:26:18.773Z,99326.83
2023-04-08T15:31:21.294Z,99327.88
2023-04-08T15:36:23.476Z,99336.05
2023-04-08T15:41:26.367Z,99335.42
2023-04-08T15:46:28.283Z,99339.22
2023-04-08T15:51:30.307Z,99343.31
2023-04-08T15:56:33.709Z,99342.98
2023-04-08T16:01:36.296Z,99344.20
2023-04-08T16:06:38.456Z,99341.17
2023-04-08T16:11:41.822Z,99340.63
2023-04-08T16:16:43.847Z,99342.01
2023-04-08T16:21:46.461Z,99342.89
2023-04-08T16:26:48.409Z,99346.55
2023-04-08T16:31:53.181Z,99347.34
2023-04-08T16:36:56.873Z,99350.52
2023-04-08T16:42:01.090Z,99349.47
2023-04-08T16:47:03.169Z,99352.84
2023-04-08T16:52:06.242Z,99356.29
2023-04-08T16:57:08.431Z,99355.91
2023-04-08T17:02:12.696Z,99360.10
2023-04-08T17:07:16.127Z,99366.02
2023-04-08T17:12:18.371Z,99369.96
2023-04-08T17:17:21.043Z,99375.73
2023-04-08T17:22:23.127Z,99386.08
2023-04-08T17:27:25.034Z,99388.25
2023-04-08T17:32:30.174Z,99390.84
2023-04-08T17:37:32.045Z,99397.20
2023-04-08T17:42:33.916Z,99397.17
2023-04-08T17:47:36.156Z,99396.25
2023-04-08T17:52:38.240Z,99401.05
2023-04-08T17:57:40.177Z,99404.56
2023-04-08T18:02:42.926Z,99407.15
2023-04-08T18:07:45.462Z,99411.39
2023-04-08T18:12:48.986Z,99415.36
2023-04-08T18:17:51.448Z,99413.45
2023-04-08T18:22:53.920Z,99420.10
2023-04-08T18:27:55.910Z,99424.41
2023-04-08T18:32:57.863Z,99429.42
2023-04-08T18:37:59.909Z,99437.19
2023-04-08T18:43:05.653Z,99438.23
2023-04-08T18:48:09.528Z,99440.52
2023-04-08T18:53:12.536Z,99447.36
2023-04-08T18:58:14.724Z,99453.27
2023-04-08T19:03:17.492Z,99457.21
2023-04-08T19:08:19.502Z,99457.20
2023-04-08T19:13:23.534Z,99463.91
2023-04-08T19:18:26.096Z,99466.96
2023-04-08T19:23:28.807Z,99460.95
2023-04-08T19:28:32.414Z,99454.90
2023-04-08T19:33:34.375Z,99460.27
2023-04-08T19:38:36.343Z,99460.86
2023-04-08T19:43:38.477Z,99456.80
2023-04-08T19:48:40.507Z,99458.98
2023-04-08T19:53:43.114Z,99459.23
2023-04-08T19:58:45.041Z,99463.70
2023-04-08T20:03:50.539Z,99461.48
2023-04-08T20:08:53.667Z,99457.67
2023-04-08T20:13:56.513Z,99453.80
2023-04-08T20:18:58.588Z,99454.23
2023-04-08T20:24:01.212Z,99454.79
2023-04-08T20:29:03.144Z,99455.20
2023-04-08T20:34:05.203Z,99449.58
2023-04-08T20:39:10.821Z,99451.83
2023-04-08T20:44:13.280Z,99451.04
2023-04-08T20:49:18.771Z,99453.20
2023-04-08T20:54:21.828Z,99455.83
2023-04-08T20:59:23.752Z,99461.15
2023-04-08T21:04:25.967Z,99458.80
2023-04-08T21:09:28.621Z,99466.05
2023-04-08T21:14:38.161Z,99466.39
2023-04-08T21:19:40.237Z,99460.70
2023-04-08T21:24:43.173Z,99469.10
2023-04-08T21:29:45.287Z,99461.22
2023-04-08T21:34:56.735Z,99462.58
2023-04-08T21:39:58.679Z,99468.80
2023-04-08T21:45:02.265Z,99471.23
2023-04-08T21:50:08.161Z,99477.45
2023-04-08T21:55:30.567Z,99483.43
2023-04-08T22:00:32.559Z,99483.39
2023-04-08T22:05:36.079Z,99474.70
2023-04-08T22:10:38.171Z,99477.13
2023-04-08T22:15:40.742Z,99477.82
2023-04-08T22:20:43.317Z,99486.20
2023-04-08T22:25:51.934Z,99486.15
2023-04-08T22:30:55.416Z,99488.80
2023-04-08T22:35:57.824Z,99489.09
2023-04-08T22:41:00.893Z,99479.77
2023-04-08T22:46:03.186Z,99483.18
2023-04-08T22:51:05.548Z,99479.45
2023-04-08T22:56:07.794Z,99484.84
2023-04-08T23:01:18.590Z,99476.41
2023-04-08T23:06:20.640Z,99462.53
2023-04-08T23:11:42.467Z,99466.55
2023-04-08T23:16:45.536Z,99462.56
2023-04-08T23:21:47.525Z,99456.83
2023-04-08T23:26:50.273Z,99455.59
2023-04-08T23:31:54.473Z,99447.96
2023-04-08T23:36:56.414Z,99442.58
2023-04-08T23:41:58.878Z,99445.31
2023-04-08T23:47:02.063Z,99452.98
2023-04-08T23:52:06.319Z,99464.23
2023-04-08T23:57:08.363Z,99477.76
